Thursday, January 18, 2018, 12:10 AM GMT
Back to Local

CYWA, Petawawa, Ont.

Location: , , Canada Lat: 45.95
Local Time: 12:10 AM GMT ( 0:10 GMT) Lon: -77.317
Time Zone: GMT Elev: 426 ft

Show me the last for .
Show Decoded

2018-01-17 23:00 METAR CYWA 172300Z AUTO 21006KT 9SM OVC032 M05/M11 A3002 RMK SLP176 =
2018-01-17 22:00 METAR CYWA 172200Z AUTO 18008KT 160V220 9SM BKN032 BKN047 OVC057 OVC077 M05/M11
                 A3003 RMK SLP180 =
2018-01-17 21:00 METAR CYWA 172100Z AUTO 21006KT 160V230 9SM OVC035 OVC093 M05/M11 A3006 RMK
                 SLP192 =
2018-01-17 20:00 METAR CYWA 172000Z AUTO 20011KT 180V240 9SM BKN035 OVC053 OVC086 M05/M12 A3008
                 RMK SLP199 =
2018-01-17 19:00 METAR CYWA 171900Z AUTO 22010KT 9SM BKN033 OVC069 M05/M12 A3011 RMK SLP209 =
2018-01-17 18:23 METAR CYWA 171823Z AUTO 21008G15KT 180V260 9SM BKN030 OVC084 OVC091 M05/M12
                 A3014 =
2018-01-17 18:00 METAR CYWA 171800Z AUTO 21009KT 9SM BKN023 BKN086 M06/M12 A3015 RMK PCPN 0.5MM
                 PAST HR SLP221 =
2018-01-17 17:37 METAR CYWA 171737Z AUTO 23008KT 190V250 9SM BKN023 M06/M12 A3017 =
2018-01-17 17:00 METAR CYWA 171700Z AUTO 12003KT 9SM FEW032 M09/M12 A3020 RMK SLP240 =
2018-01-17 16:00 METAR CYWA 171600Z AUTO 13004KT 9SM CLR M11/M14 A3026 RMK PCPN 0.5MM PAST HR
                 SLP257 =
2018-01-17 15:00 METAR CYWA 171500Z AUTO 14002KT 8SM CLR M14/M16 A3028 RMK SLP265 =
2018-01-17 14:00 METAR CYWA 171400Z AUTO 14003KT 9SM CLR M21/M22 A3028 RMK SLP268 =
2018-01-17 13:00 METAR CYWA 171300Z AUTO 00000KT 9SM CLR M23/M24 A3030 RMK SLP275 =
2018-01-17 12:00 METAR CYWA 171200Z AUTO 00000KT 8SM CLR M22/M24 A3031 RMK SLP280 =
2018-01-17 11:00 METAR CYWA 171100Z AUTO 00000KT 9SM CLR M22/M23 A3032 RMK SLP281 =
2018-01-17 10:00 METAR CYWA 171000Z AUTO 00000KT 9SM CLR M22/M23 A3031 RMK SLP279 =
2018-01-17 09:00 METAR CYWA 170900Z AUTO 00000KT 9SM CLR M19/M20 A3032 RMK SLP282 =
2018-01-17 08:00 METAR CYWA 170800Z AUTO 21003KT 9SM CLR M20/M21 A3032 RMK ICG PAST HR SLP281 =
2018-01-17 07:21 METAR CYWA 170721Z AUTO 22002KT 9SM SCT013 M19/M21 A3032 RMK ICG PAST HR =
2018-01-17 07:04 METAR CYWA 170704Z AUTO 00000KT 9SM OVC013 M19/M20 A3033 RMK ICG INTMT =
2018-01-17 07:00 METAR CYWA 170700Z AUTO 00000KT 9SM OVC015 M18/M20 A3033 RMK ICG INTMT SLP284 =
2018-01-17 06:50 METAR CYWA 170650Z AUTO 00000KT 9SM BKN023 M18/M20 A3034 RMK ICG INTMT =
2018-01-17 06:27 METAR CYWA 170627Z AUTO 00000KT 9SM SCT026 M18/M19 A3034 RMK ICG =
2018-01-17 06:00 METAR CYWA 170600Z AUTO 00000KT 9SM BKN023 M18/M19 A3034 RMK SLP285 =
2018-01-17 05:15 METAR CYWA 170515Z AUTO 00000KT 9SM BKN023 M15/M17 A3034 =
2018-01-17 05:00 METAR CYWA 170500Z AUTO 00000KT 9SM BKN026 M15/M16 A3035 RMK SLP290 =
2018-01-17 04:00 METAR CYWA 170400Z AUTO 00000KT 9SM OVC029 M13/M14 A3036 RMK SLP292 =
2018-01-17 03:00 METAR CYWA 170300Z AUTO 00000KT 4SM OVC031 M11/M13 A3036 RMK SLP293 =
2018-01-17 02:00 METAR CYWA 170200Z AUTO 00000KT 3SM FEW023 OVC032 M11/M14 A3037 RMK SLP297 =
2018-01-17 01:49 METAR CYWA 170149Z AUTO 00000KT 4SM SCT023 OVC032 M11/M14 A3037 =
2018-01-17 01:38 METAR CYWA 170138Z AUTO 00000KT 5SM BKN023 OVC032 M11/M14 A3038 =
2018-01-17 01:00 METAR CYWA 170100Z AUTO 16002KT 5SM OVC035 M11/M14 A3038 RMK SLP300 =
2018-01-17 00:56 METAR CYWA 170056Z AUTO 00000KT 4SM OVC035 M11/M14 A3038 =

Support USWX by starting your Amazon purchase here.